createdAt,value
2017-03-18T00:00:42.804Z,16.15
2017-03-18T00:01:53.096Z,16.44
2017-03-18T00:03:03.383Z,16.53
2017-03-18T00:04:13.688Z,16.05
2017-03-18T00:05:23.997Z,16.53
2017-03-18T00:06:34.290Z,16.53
2017-03-18T00:07:44.282Z,16.34
2017-03-18T00:08:54.597Z,16.44
2017-03-18T00:10:04.926Z,16.63
2017-03-18T00:11:15.168Z,16.44
2017-03-18T00:12:25.467Z,16.44
2017-03-18T00:13:35.780Z,16.44
2017-03-18T00:14:46.097Z,16.44
2017-03-18T00:15:56.128Z,16.44
2017-03-18T00:17:06.679Z,16.44
2017-03-18T00:18:16.990Z,16.24
2017-03-18T00:19:26.986Z,16.53
2017-03-18T00:20:37.281Z,16.44
2017-03-18T00:21:46.951Z,16.34
2017-03-18T00:22:57.511Z,16.44
2017-03-18T00:24:07.866Z,16.53
2017-03-18T00:25:17.857Z,16.34
2017-03-18T00:26:28.154Z,16.44
2017-03-18T00:27:38.475Z,16.72
2017-03-18T00:28:49.060Z,16.53
2017-03-18T00:29:59.044Z,16.24
2017-03-18T00:31:09.332Z,16.24
2017-03-18T00:32:19.636Z,16.24
2017-03-18T00:33:29.943Z,16.53
2017-03-18T00:34:40.186Z,16.53
2017-03-18T00:35:50.500Z,16.44
2017-03-18T00:37:00.798Z,16.44
2017-03-18T00:38:10.801Z,16.34
2017-03-18T00:39:21.115Z,16.53
2017-03-18T00:40:31.719Z,16.24
2017-03-18T00:41:41.390Z,16.53
2017-03-18T00:42:51.383Z,16.44
2017-03-18T00:44:01.690Z,16.44
2017-03-18T00:45:11.992Z,16.24
2017-03-18T00:46:22.531Z,16.53
2017-03-18T00:47:32.851Z,16.34
2017-03-18T00:48:43.156Z,16.24
2017-03-18T00:49:53.199Z,16.53
2017-03-18T00:51:03.658Z,16.44
2017-03-18T00:52:14.205Z,16.53
2017-03-18T00:53:24.506Z,16.53
2017-03-18T00:54:34.829Z,16.34
2017-03-18T00:55:45.120Z,16.63
2017-03-18T00:56:55.418Z,16.34
2017-03-18T00:58:05.700Z,16.34
2017-03-18T00:59:15.697Z,16.44
2017-03-18T01:00:26.006Z,16.53
2017-03-18T01:01:36.324Z,16.34
2017-03-18T01:02:46.645Z,16.24
2017-03-18T01:03:57.198Z,16.24
2017-03-18T01:05:07.501Z,16.44
2017-03-18T01:06:17.813Z,16.53
2017-03-18T01:07:28.122Z,16.44
2017-03-18T01:08:38.458Z,16.24
2017-03-18T01:09:49.018Z,16.34
2017-03-18T01:10:59.325Z,16.44
2017-03-18T01:12:09.632Z,16.44
2017-03-18T01:13:19.933Z,16.05
2017-03-18T01:14:30.237Z,16.44
2017-03-18T01:15:40.480Z,16.53
2017-03-18T01:16:50.771Z,16.34
2017-03-18T01:18:00.755Z,16.34
2017-03-18T01:19:10.755Z,16.34
2017-03-18T01:20:21.080Z,16.34
2017-03-18T01:21:31.629Z,16.34
2017-03-18T01:22:41.930Z,16.24
2017-03-18T01:23:52.238Z,16.63
2017-03-18T01:25:02.548Z,16.34
2017-03-18T01:26:12.844Z,16.34
2017-03-18T01:27:23.415Z,16.53
2017-03-18T01:28:33.706Z,16.44
2017-03-18T01:29:43.703Z,16.34
2017-03-18T01:30:53.997Z,16.24
2017-03-18T01:32:03.987Z,16.24
2017-03-18T01:33:14.531Z,16.44
2017-03-18T01:34:24.205Z,16.34
2017-03-18T01:35:34.508Z,16.34
2017-03-18T01:36:44.499Z,16.44
2017-03-18T01:37:54.500Z,16.24
2017-03-18T01:39:04.739Z,16.53
2017-03-18T01:40:14.734Z,16.24
2017-03-18T01:41:25.027Z,16.44
2017-03-18T01:42:35.335Z,16.53
2017-03-18T01:43:45.642Z,16.53
2017-03-18T01:44:56.246Z,16.53
2017-03-18T01:46:06.541Z,16.53
2017-03-18T01:47:16.514Z,16.44
2017-03-18T01:48:26.813Z,16.82
2017-03-18T01:49:36.795Z,16.72
2017-03-18T01:50:47.040Z,17.01
2017-03-18T01:51:57.345Z,17.11
2017-03-18T01:53:07.652Z,17.01
2017-03-18T01:54:17.655Z,16.92
2017-03-18T01:55:27.952Z,16.92
2017-03-18T01:56:38.512Z,17.11
2017-03-18T01:57:48.816Z,17.4
2017-03-18T01:58:59.114Z,17.3
2017-03-18T02:00:09.428Z,17.21
2017-03-18T02:01:19.715Z,17.59
2017-03-18T02:02:30.331Z,17.49
2017-03-18T02:03:40.636Z,17.49
2017-03-18T02:04:51.095Z,17.78
2017-03-18T02:06:01.393Z,17.59
2017-03-18T02:07:11.715Z,17.59
2017-03-18T02:08:22.265Z,17.59
2017-03-18T02:09:32.568Z,17.97
2017-03-18T02:10:42.864Z,17.78
2017-03-18T02:11:52.880Z,17.97
2017-03-18T02:13:03.171Z,17.78
2017-03-18T02:14:13.750Z,17.88
2017-03-18T02:15:24.069Z,18.46
2017-03-18T02:16:34.361Z,18.46
2017-03-18T02:17:44.669Z,18.36
2017-03-18T02:18:54.993Z,18.54
2017-03-18T02:20:05.539Z,18.55
2017-03-18T02:21:15.832Z,18.46
2017-03-18T02:22:26.134Z,18.46
2017-03-18T02:23:36.440Z,18.46
2017-03-18T02:24:46.438Z,18.55
2017-03-18T02:25:56.732Z,18.55
2017-03-18T02:27:07.044Z,18.55
2017-03-18T02:28:17.337Z,18.55
2017-03-18T02:29:27.338Z,18.74
2017-03-18T02:30:37.638Z,19.03
2017-03-18T02:31:47.881Z,18.93
2017-03-18T02:32:58.339Z,18.84
2017-03-18T02:34:08.330Z,18.84
2017-03-18T02:35:19.087Z,19.03
2017-03-18T02:36:29.391Z,19.23
2017-03-18T02:37:39.670Z,19.13
2017-03-18T02:38:49.658Z,19.32
2017-03-18T02:39:59.962Z,19.13
2017-03-18T02:41:10.266Z,19.32
2017-03-18T02:42:20.569Z,19.32
2017-03-18T02:43:30.809Z,19.51
2017-03-18T02:44:41.120Z,19.42
2017-03-18T02:45:50.793Z,19.61
2017-03-18T02:47:00.777Z,19.8
2017-03-18T02:48:11.094Z,19.6
2017-03-18T02:49:21.696Z,19.42
2017-03-18T02:50:31.994Z,19.51
2017-03-18T02:51:42.301Z,19.7
2017-03-18T02:52:52.586Z,19.8
2017-03-18T02:54:02.579Z,19.8
2017-03-18T02:55:13.181Z,19.61
2017-03-18T02:56:23.170Z,19.8
2017-03-18T02:57:33.460Z,19.61
2017-03-18T02:58:43.450Z,19.8
2017-03-18T02:59:53.437Z,19.7
2017-03-18T03:01:03.987Z,19.4
2017-03-18T03:02:14.282Z,19.61
2017-03-18T03:03:24.618Z,19.51
2017-03-18T03:04:34.915Z,19.51
2017-03-18T03:05:44.586Z,19.9
2017-03-18T03:06:54.819Z,19.8
2017-03-18T03:08:05.126Z,20.09
2017-03-18T03:09:15.429Z,19.89
2017-03-18T03:10:25.724Z,20.08
2017-03-18T03:11:36.044Z,19.89
2017-03-18T03:12:45.965Z,20.09
2017-03-18T03:13:56.283Z,20.27
2017-03-18T03:15:06.264Z,20.18
2017-03-18T03:16:16.569Z,19.98
2017-03-18T03:17:26.668Z,20.28
2017-03-18T03:18:36.903Z,20.37
2017-03-18T03:19:47.228Z,20.17
2017-03-18T03:20:57.530Z,20.47
2017-03-18T03:22:07.831Z,20.27
2017-03-18T03:23:17.811Z,20.17
2017-03-18T03:24:28.374Z,20.57
2017-03-18T03:25:38.368Z,20.38
2017-03-18T03:26:48.663Z,20.47
2017-03-18T03:27:58.990Z,20.47
2017-03-18T03:29:09.286Z,20.37
2017-03-18T03:30:19.852Z,20.37
2017-03-18T03:31:30.153Z,20.27
2017-03-18T03:32:40.455Z,20.27
2017-03-18T03:33:50.754Z,20.08
2017-03-18T03:35:01.066Z,20.65
2017-03-18T03:36:11.341Z,20.47
2017-03-18T03:37:21.635Z,20.56
2017-03-18T03:38:31.621Z,20.67
2017-03-18T03:39:41.606Z,20.56
2017-03-18T03:40:51.583Z,20.65
2017-03-18T03:42:02.176Z,20.65
2017-03-18T03:43:12.468Z,20.65
2017-03-18T03:44:22.768Z,20.56
2017-03-18T03:45:33.072Z,20.65
2017-03-18T03:46:43.367Z,20.56
2017-03-18T03:47:53.925Z,20.56
2017-03-18T03:49:03.907Z,20.65
2017-03-18T03:50:14.208Z,20.65
2017-03-18T03:51:24.192Z,20.75
2017-03-18T03:52:34.483Z,20.47
2017-03-18T03:53:45.037Z,20.47
2017-03-18T03:54:55.348Z,20.47
2017-03-18T03:56:05.644Z,20.56
2017-03-18T03:57:15.943Z,20.56
2017-03-18T03:58:25.930Z,20.56
2017-03-18T03:59:36.522Z,20.47
2017-03-18T04:00:46.181Z,20.37
2017-03-18T04:01:56.487Z,20.37
2017-03-18T04:03:06.787Z,20.85
2017-03-18T04:04:16.781Z,20.94
2017-03-18T04:05:27.389Z,21.04
2017-03-18T04:06:37.049Z,20.94
2017-03-18T04:07:47.342Z,20.85
2017-03-18T04:08:57.351Z,20.85
2017-03-18T04:10:07.651Z,20.85
2017-03-18T04:11:17.930Z,20.85
2017-03-18T04:12:27.910Z,20.85
2017-03-18T04:13:38.206Z,20.85
2017-03-18T04:14:48.202Z,20.75
2017-03-18T04:15:58.506Z,20.94
2017-03-18T04:17:08.743Z,20.94
2017-03-18T04:18:19.032Z,20.94
2017-03-18T04:19:29.357Z,20.94
2017-03-18T04:20:39.668Z,20.94
2017-03-18T04:21:49.966Z,20.85
2017-03-18T04:23:00.205Z,21.04
2017-03-18T04:24:10.507Z,21.14
2017-03-18T04:25:20.499Z,21.04
2017-03-18T04:26:30.800Z,21.14
2017-03-18T04:27:41.094Z,20.65
2017-03-18T04:28:51.696Z,20.85
2017-03-18T04:30:01.993Z,20.65
2017-03-18T04:31:12.295Z,20.94
2017-03-18T04:32:22.594Z,21.04
2017-03-18T04:33:32.893Z,21.04
2017-03-18T04:34:43.491Z,20.75
2017-03-18T04:35:53.802Z,20.85
2017-03-18T04:37:03.784Z,21.14
2017-03-18T04:38:14.119Z,21.04
2017-03-18T04:39:24.410Z,20.94
2017-03-18T04:40:34.957Z,21.14
2017-03-18T04:41:44.950Z,20.85
2017-03-18T04:42:55.249Z,20.75
2017-03-18T04:44:05.234Z,20.85
2017-03-18T04:45:15.536Z,20.85
2017-03-18T04:46:25.811Z,20.85
2017-03-18T04:47:35.794Z,20.85
2017-03-18T04:48:46.100Z,20.75
2017-03-18T04:49:56.101Z,20.85
2017-03-18T04:51:06.406Z,21.04
2017-03-18T04:52:16.958Z,20.94
2017-03-18T04:53:27.249Z,20.85
2017-03-18T04:54:37.553Z,21.04
2017-03-18T04:55:47.849Z,21.33
2017-03-18T04:56:58.148Z,21.14
2017-03-18T04:58:08.688Z,21.33
2017-03-18T04:59:18.989Z,21.42
2017-03-18T05:00:29.303Z,20.85
2017-03-18T05:01:39.594Z,20.75
2017-03-18T05:02:49.892Z,21.23
2017-03-18T05:04:00.445Z,21.23
2017-03-18T05:05:10.739Z,21.14
2017-03-18T05:06:21.046Z,21.14
2017-03-18T05:07:31.338Z,20.85
2017-03-18T05:08:41.649Z,20.85
2017-03-18T05:09:52.242Z,20.94
2017-03-18T05:11:02.541Z,20.85
2017-03-18T05:12:12.832Z,21.14
2017-03-18T05:13:23.146Z,20.85
2017-03-18T05:14:33.446Z,20.75
2017-03-18T05:15:44.042Z,20.94
2017-03-18T05:16:54.032Z,21.14
2017-03-18T05:18:04.352Z,20.56
2017-03-18T05:19:14.349Z,20.56
2017-03-18T05:20:24.332Z,21.23
2017-03-18T05:21:34.918Z,20.94
2017-03-18T05:22:44.896Z,20.56
2017-03-18T05:23:55.211Z,20.85
2017-03-18T05:25:05.533Z,20.85
2017-03-18T05:26:15.513Z,20.85
2017-03-18T05:27:26.068Z,20.85
2017-03-18T05:28:36.375Z,20.85
2017-03-18T05:29:46.672Z,20.75
2017-03-18T05:30:56.979Z,20.94
2017-03-18T05:32:07.267Z,20.75
2017-03-18T05:33:17.856Z,21.04
2017-03-18T05:34:28.154Z,20.94
2017-03-18T05:35:38.138Z,21.14
2017-03-18T05:36:48.138Z,21.14
2017-03-18T05:37:58.447Z,21.14
2017-03-18T05:39:09.051Z,21.14
2017-03-18T05:40:19.037Z,21.14
2017-03-18T05:41:29.022Z,21.14
2017-03-18T05:42:39.341Z,21.42
2017-03-18T05:43:49.638Z,21.14
2017-03-18T05:44:59.873Z,21.33
2017-03-18T05:46:09.862Z,21.42
2017-03-18T05:47:19.833Z,21.42
2017-03-18T05:48:30.131Z,21.61
2017-03-18T05:49:40.135Z,21.52
2017-03-18T05:50:50.678Z,21.52
2017-03-18T05:52:00.960Z,21.52
2017-03-18T05:53:10.942Z,21.81
2017-03-18T05:54:21.249Z,21.81
2017-03-18T05:55:31.553Z,21.71
2017-03-18T05:56:42.140Z,21.61
2017-03-18T05:57:52.454Z,21.52
2017-03-18T05:59:02.759Z,21.81
2017-03-18T06:00:13.075Z,21.81
2017-03-18T06:01:23.370Z,21.81
2017-03-18T06:02:33.622Z,21.81
2017-03-18T06:03:43.930Z,21.61
2017-03-18T06:04:54.241Z,21.71
2017-03-18T06:06:04.550Z,21.71
2017-03-18T06:07:14.531Z,21.71
2017-03-18T06:08:24.517Z,21.81
2017-03-18T06:09:34.554Z,21.91
2017-03-18T06:10:44.234Z,21.81
2017-03-18T06:11:53.894Z,21.91
2017-03-18T06:13:04.125Z,21.81
2017-03-18T06:14:14.666Z,21.81
2017-03-18T06:15:24.989Z,22
2017-03-18T06:16:35.282Z,22
2017-03-18T06:17:45.264Z,21.91
2017-03-18T06:18:55.568Z,22
2017-03-18T06:20:06.124Z,22.09
2017-03-18T06:21:16.432Z,22.29
2017-03-18T06:22:26.465Z,22.09
2017-03-18T06:23:36.768Z,21.81
2017-03-18T06:24:47.072Z,22.09
2017-03-18T06:25:57.616Z,22.09
2017-03-18T06:27:07.601Z,22.09
2017-03-18T06:28:17.910Z,22
2017-03-18T06:29:28.223Z,22.09
2017-03-18T06:30:38.538Z,22.19
2017-03-18T06:31:48.770Z,22
2017-03-18T06:32:58.752Z,22.19
2017-03-18T06:34:09.053Z,22.48
2017-03-18T06:35:19.075Z,22.48
2017-03-18T06:36:29.376Z,22.48
2017-03-18T06:37:39.940Z,22.48
2017-03-18T06:38:49.921Z,22.48
2017-03-18T06:40:00.217Z,22.58
2017-03-18T06:41:10.240Z,22.48
2017-03-18T06:42:20.538Z,22.38
2017-03-18T06:43:31.089Z,22.77
2017-03-18T06:44:41.076Z,22.77
2017-03-18T06:45:51.428Z,22.77
2017-03-18T06:47:01.724Z,22.67
2017-03-18T06:48:12.042Z,22.67
2017-03-18T06:49:22.646Z,22.67
2017-03-18T06:50:32.951Z,22.77
2017-03-18T06:51:43.245Z,22.77
2017-03-18T06:52:53.245Z,22.77
2017-03-18T06:54:03.548Z,22.96
2017-03-18T06:55:14.102Z,22.86
2017-03-18T06:56:24.397Z,22.67
2017-03-18T06:57:34.733Z,22.58
2017-03-18T06:58:45.050Z,22.86
2017-03-18T06:59:55.362Z,22.86
2017-03-18T07:01:05.980Z,22.96
2017-03-18T07:02:16.284Z,22.86
2017-03-18T07:03:26.592Z,22.86
2017-03-18T07:04:36.882Z,23.06
2017-03-18T07:05:47.213Z,22.96
2017-03-18T07:06:57.821Z,23.06
2017-03-18T07:08:08.122Z,22.96
2017-03-18T07:09:18.429Z,23.06
2017-03-18T07:10:28.412Z,23.06
2017-03-18T07:11:38.713Z,23.35
2017-03-18T07:12:48.998Z,23.25
2017-03-18T07:13:59.305Z,23.25
2017-03-18T07:15:09.623Z,23.25
2017-03-18T07:16:19.926Z,23.35
2017-03-18T07:17:30.234Z,23.35
2017-03-18T07:18:40.497Z,23.15
2017-03-18T07:19:50.796Z,23.25
2017-03-18T07:21:01.108Z,23.25
2017-03-18T07:22:11.413Z,23.15
2017-03-18T07:23:21.401Z,23.15
2017-03-18T07:24:31.647Z,23.15
2017-03-18T07:25:41.648Z,23.63
2017-03-18T07:26:51.955Z,23.73
2017-03-18T07:28:02.257Z,23.83
2017-03-18T07:29:12.580Z,23.63
2017-03-18T07:30:23.174Z,23.92
2017-03-18T07:31:33.504Z,23.83
2017-03-18T07:32:43.808Z,23.83
2017-03-18T07:33:54.112Z,23.83
2017-03-18T07:35:04.429Z,23.73
2017-03-18T07:36:15.209Z,23.83
2017-03-18T07:37:25.523Z,23.83
2017-03-18T07:38:35.813Z,23.83
2017-03-18T07:39:45.801Z,23.83
2017-03-18T07:40:56.105Z,23.92
2017-03-18T07:42:06.655Z,24.4
2017-03-18T07:43:16.637Z,24.02
2017-03-18T07:44:26.980Z,24.3
2017-03-18T07:45:37.275Z,24.3
2017-03-18T07:46:47.251Z,24.4
2017-03-18T07:47:57.485Z,24.4
2017-03-18T07:49:07.812Z,24.5
2017-03-18T07:50:18.166Z,24.3
2017-03-18T07:51:28.180Z,24.3
2017-03-18T07:52:38.227Z,24.3
2017-03-18T07:53:48.516Z,24.3
2017-03-18T07:54:58.520Z,23.92
2017-03-18T07:56:08.831Z,24.3
2017-03-18T07:57:19.152Z,24.4
2017-03-18T07:58:29.469Z,24.4
2017-03-18T07:59:39.719Z,24.6
2017-03-18T08:00:50.019Z,24.3
2017-03-18T08:02:00.348Z,24.6
2017-03-18T08:03:10.659Z,24.4
2017-03-18T08:04:20.977Z,24.6
2017-03-18T08:05:31.541Z,24.69
2017-03-18T08:06:41.837Z,24.69
2017-03-18T08:07:52.147Z,24.79
2017-03-18T08:09:02.464Z,24.79
2017-03-18T08:10:12.460Z,24.88
2017-03-18T08:11:23.114Z,24.69
2017-03-18T08:12:33.466Z,24.79
2017-03-18T08:13:43.776Z,24.8
2017-03-18T08:14:54.077Z,24.69
2017-03-18T08:16:04.372Z,24.88
2017-03-18T08:17:14.918Z,24.88
2017-03-18T08:18:25.207Z,24.98
2017-03-18T08:19:35.508Z,24.88
2017-03-18T08:20:45.829Z,24.98
2017-03-18T08:21:56.141Z,24.79
2017-03-18T08:23:07.036Z,24.88
2017-03-18T08:24:17.347Z,24.79
2017-03-18T08:25:27.648Z,24.98
2017-03-18T08:26:37.632Z,24.88
2017-03-18T08:27:47.946Z,24.88
2017-03-18T08:28:58.243Z,25.46
2017-03-18T08:30:08.560Z,24.98
2017-03-18T08:31:18.860Z,24.69
2017-03-18T08:32:29.170Z,25.38
2017-03-18T08:33:39.476Z,25.09
2017-03-18T08:34:50.042Z,25.28
2017-03-18T08:36:00.364Z,25.56
2017-03-18T08:37:10.671Z,25.27
2017-03-18T08:38:21.278Z,25.56
2017-03-18T08:39:31.574Z,25.65
2017-03-18T08:40:42.218Z,25.46
2017-03-18T08:41:52.572Z,25.36
2017-03-18T08:43:02.890Z,25.94
2017-03-18T08:44:12.885Z,26.04
2017-03-18T08:45:23.190Z,25.57
2017-03-18T08:46:32.854Z,25.84
2017-03-18T08:47:43.165Z,25.95
2017-03-18T08:48:53.482Z,25.95
2017-03-18T08:50:03.778Z,25.85
2017-03-18T08:51:14.089Z,25.85
2017-03-18T08:52:24.684Z,25.95
2017-03-18T08:53:34.982Z,25.85
2017-03-18T08:54:45.286Z,25.76
2017-03-18T08:55:55.591Z,25.76
2017-03-18T08:57:05.879Z,25.57
2017-03-18T08:58:16.441Z,25.67
2017-03-18T08:59:26.749Z,25.76
2017-03-18T09:00:37.058Z,25.65
2017-03-18T09:01:47.363Z,25.95
2017-03-18T09:02:57.667Z,26.04
2017-03-18T09:04:08.269Z,26.05
2017-03-18T09:05:18.592Z,26.05
2017-03-18T09:06:28.905Z,26.24
2017-03-18T09:07:39.208Z,26.13
2017-03-18T09:08:49.539Z,26.15
2017-03-18T09:10:00.161Z,26.13
2017-03-18T09:11:10.474Z,26.15
2017-03-18T09:12:20.479Z,26.24
2017-03-18T09:13:30.788Z,26.34
2017-03-18T09:14:41.090Z,26.42
2017-03-18T09:15:51.686Z,26.24
2017-03-18T09:17:01.984Z,26.32
2017-03-18T09:18:12.285Z,26.51
2017-03-18T09:19:22.611Z,26.34
2017-03-18T09:20:32.935Z,26.61
2017-03-18T09:21:43.504Z,26.42
2017-03-18T09:22:53.811Z,26.81
2017-03-18T09:24:04.131Z,26.72
2017-03-18T09:25:14.445Z,26.62
2017-03-18T09:26:24.756Z,26.62
2017-03-18T09:27:35.303Z,26.82
2017-03-18T09:28:45.614Z,26.62
2017-03-18T09:29:55.939Z,26.43
2017-03-18T09:31:05.948Z,26.82
2017-03-18T09:32:16.249Z,26.81
2017-03-18T09:33:26.490Z,26.82
2017-03-18T09:34:36.171Z,26.72
2017-03-18T09:35:46.477Z,27.2
2017-03-18T09:36:56.790Z,27.01
2017-03-18T09:38:07.109Z,27.11
2017-03-18T09:39:17.686Z,27
2017-03-18T09:40:28.003Z,27.01
2017-03-18T09:41:38.315Z,27.11
2017-03-18T09:42:48.301Z,27.59
2017-03-18T09:43:58.307Z,27.2
2017-03-18T09:45:08.928Z,27.01
2017-03-18T09:46:18.944Z,27.38
2017-03-18T09:47:29.249Z,27.39
2017-03-18T09:48:39.566Z,27.3
2017-03-18T09:49:49.871Z,27.49
2017-03-18T09:51:00.428Z,27.39
2017-03-18T09:52:10.754Z,27.59
2017-03-18T09:53:21.066Z,27.97
2017-03-18T09:54:31.068Z,27.87
2017-03-18T09:55:41.082Z,27.69
2017-03-18T09:56:51.648Z,27.78
2017-03-18T09:58:01.964Z,27.87
2017-03-18T09:59:12.283Z,27.87
2017-03-18T10:00:22.607Z,28.26
2017-03-18T10:01:32.946Z,28.16
2017-03-18T10:02:43.577Z,28.16
2017-03-18T10:03:53.900Z,28.16
2017-03-18T10:05:03.923Z,28.07
2017-03-18T10:06:14.230Z,28.16
2017-03-18T10:07:24.543Z,28.16
2017-03-18T10:08:35.120Z,28.07
2017-03-18T10:09:45.443Z,28.55
2017-03-18T10:10:55.748Z,28.64
2017-03-18T10:12:06.092Z,28.84
2017-03-18T10:13:16.093Z,29.03
2017-03-18T10:14:26.662Z,28.93
2017-03-18T10:15:36.972Z,29.03
2017-03-18T10:16:46.975Z,29.03
2017-03-18T10:17:57.266Z,29.13
2017-03-18T10:19:07.314Z,29.22
2017-03-18T10:20:17.932Z,29.13
2017-03-18T10:21:28.224Z,29.51
2017-03-18T10:22:38.537Z,29.41
2017-03-18T10:23:48.852Z,29.13
2017-03-18T10:24:59.181Z,29.22
2017-03-18T10:26:09.743Z,29.13
2017-03-18T10:27:20.047Z,29.7
2017-03-18T10:28:30.373Z,29.51
2017-03-18T10:29:40.696Z,29.99
2017-03-18T10:30:51.022Z,29.7
2017-03-18T10:32:01.619Z,29.51
2017-03-18T10:33:11.302Z,29.41
2017-03-18T10:34:20.685Z,29.99
2017-03-18T10:35:30.684Z,29.8
2017-03-18T10:36:40.996Z,29.7
2017-03-18T10:37:51.563Z,29.9
2017-03-18T10:39:01.888Z,29.8
2017-03-18T10:40:12.215Z,29.8
2017-03-18T10:41:22.518Z,29.8
2017-03-18T10:42:32.834Z,29.7
2017-03-18T10:43:43.398Z,29.9
2017-03-18T10:44:53.706Z,29.7
2017-03-18T10:46:03.686Z,29.41
2017-03-18T10:47:13.996Z,29.41
2017-03-18T10:48:24.304Z,29.7
2017-03-18T10:49:34.550Z,29.61
2017-03-18T10:50:44.856Z,29.61
2017-03-18T10:51:54.855Z,29.22
2017-03-18T10:53:05.188Z,29.41
2017-03-18T10:54:14.886Z,29.32
2017-03-18T10:55:25.507Z,29.22
2017-03-18T10:56:35.818Z,29.32
2017-03-18T10:57:46.133Z,29.22
2017-03-18T10:58:56.457Z,29.51
2017-03-18T11:00:06.776Z,29.32
2017-03-18T11:01:17.021Z,29.22
2017-03-18T11:02:27.334Z,29.22
2017-03-18T11:03:37.321Z,29.32
2017-03-18T11:04:47.634Z,29.04
2017-03-18T11:05:57.947Z,29.03
2017-03-18T11:07:08.522Z,28.84
2017-03-18T11:08:18.899Z,28.45
2017-03-18T11:09:29.201Z,28.47
2017-03-18T11:10:38.872Z,28.45
2017-03-18T11:11:48.850Z,27.97
2017-03-18T11:12:59.408Z,28.16
2017-03-18T11:14:09.729Z,28.16
2017-03-18T11:15:20.044Z,28.27
2017-03-18T11:16:30.384Z,28.16
2017-03-18T11:17:40.381Z,28.07
2017-03-18T11:18:50.626Z,28.26
2017-03-18T11:20:00.988Z,27.87
2017-03-18T11:21:11.295Z,27.89
2017-03-18T11:22:21.599Z,27.87
2017-03-18T11:23:31.952Z,27.87
2017-03-18T11:24:42.521Z,28.07
2017-03-18T11:25:52.821Z,27.87
2017-03-18T11:27:03.133Z,27.3
2017-03-18T11:28:13.478Z,27.11
2017-03-18T11:29:23.805Z,27.2
2017-03-18T11:30:34.383Z,27.2
2017-03-18T11:31:44.704Z,26.82
2017-03-18T11:32:55.008Z,26.34
2017-03-18T11:34:05.328Z,26.16
2017-03-18T11:35:15.634Z,25.68
2017-03-18T11:36:26.192Z,25.1
2017-03-18T11:37:36.503Z,25.1
2017-03-18T11:38:46.869Z,24.71
2017-03-18T11:39:57.188Z,24.43
2017-03-18T11:41:07.506Z,23.94
2017-03-18T11:42:18.075Z,23.85
2017-03-18T11:43:28.383Z,24.23
2017-03-18T11:44:38.679Z,23.75
2017-03-18T11:45:48.988Z,23.74
2017-03-18T11:46:59.302Z,23.55
2017-03-18T11:48:09.543Z,23.46
2017-03-18T11:49:19.558Z,23.07
2017-03-18T11:50:29.871Z,22.88
2017-03-18T11:51:39.916Z,22.69
2017-03-18T11:52:50.220Z,22.69
2017-03-18T11:54:00.786Z,22.59
2017-03-18T11:55:11.116Z,22.41
2017-03-18T11:56:21.439Z,22.22
2017-03-18T11:57:31.760Z,21.92
2017-03-18T11:58:42.082Z,22.2
2017-03-18T11:59:52.644Z,22.02
2017-03-18T12:01:02.645Z,22.02
2017-03-18T12:02:12.966Z,21.72
2017-03-18T12:03:23.302Z,21.15
2017-03-18T12:04:33.320Z,20.97
2017-03-18T12:05:43.898Z,21.25
2017-03-18T12:06:54.218Z,20.67
2017-03-18T12:08:04.541Z,20.39
2017-03-18T12:09:14.864Z,20.48
2017-03-18T12:10:25.344Z,20.48
2017-03-18T12:11:35.895Z,20.48
2017-03-18T12:12:46.214Z,20.39
2017-03-18T12:13:56.547Z,20.1
2017-03-18T12:15:06.853Z,20.2
2017-03-18T12:16:17.158Z,20.48
2017-03-18T12:17:27.775Z,20.29
2017-03-18T12:18:38.091Z,20.39
2017-03-18T12:19:48.409Z,20.39
2017-03-18T12:20:58.720Z,20.38
2017-03-18T12:22:09.043Z,20.18
2017-03-18T12:23:19.657Z,19.9
2017-03-18T12:24:29.670Z,19.51
2017-03-18T12:25:39.983Z,19.13
2017-03-18T12:26:50.343Z,19.13
2017-03-18T12:28:00.652Z,19.04
2017-03-18T12:29:11.241Z,18.93
2017-03-18T12:30:21.558Z,18.37
2017-03-18T12:31:31.888Z,18.75
2017-03-18T12:32:42.202Z,18.75
2017-03-18T12:33:52.529Z,18.75
2017-03-18T12:35:03.122Z,18.55
2017-03-18T12:36:13.454Z,18.55
2017-03-18T12:37:23.772Z,18.55
2017-03-18T12:38:34.094Z,18.56
2017-03-18T12:39:44.410Z,18.46
2017-03-18T12:40:54.658Z,18.46
2017-03-18T12:42:04.970Z,18.46
2017-03-18T12:43:15.286Z,17.88
2017-03-18T12:44:25.622Z,17.88
2017-03-18T12:45:35.937Z,18.37
2017-03-18T12:46:46.571Z,17.88
2017-03-18T12:47:56.901Z,18.18
2017-03-18T12:49:07.213Z,18.55
2017-03-18T12:50:17.556Z,18.55
2017-03-18T12:51:27.541Z,18.46
2017-03-18T12:52:37.786Z,18.55
2017-03-18T12:53:48.118Z,18.08
2017-03-18T12:54:58.438Z,17.49
2017-03-18T12:56:08.754Z,17.49
2017-03-18T12:57:19.055Z,17.88
2017-03-18T12:58:29.993Z,17.69
2017-03-18T12:59:40.300Z,17.59
2017-03-18T13:00:50.607Z,17.69
2017-03-18T13:02:00.922Z,17.69
2017-03-18T13:03:11.231Z,17.69
2017-03-18T13:04:21.850Z,17.69
2017-03-18T13:05:31.852Z,17.88
2017-03-18T13:06:41.842Z,17.69
2017-03-18T13:07:52.195Z,17.59
2017-03-18T13:09:02.209Z,17.79
2017-03-18T13:10:12.841Z,17.59
2017-03-18T13:11:22.847Z,17.69
2017-03-18T13:12:33.155Z,17.69
2017-03-18T13:13:43.481Z,17.88
2017-03-18T13:14:53.833Z,18.08
2017-03-18T13:16:04.392Z,18.07
2017-03-18T13:17:14.689Z,17.97
2017-03-18T13:18:24.383Z,17.97
2017-03-18T13:19:34.697Z,17.88
2017-03-18T13:20:45.036Z,17.97
2017-03-18T13:21:55.596Z,17.59
2017-03-18T13:23:05.580Z,17.59
2017-03-18T13:24:15.900Z,17.59
2017-03-18T13:25:26.225Z,17.69
2017-03-18T13:26:36.530Z,17.69
2017-03-18T13:27:46.849Z,17.88
2017-03-18T13:28:57.165Z,18.07
2017-03-18T13:30:07.215Z,17.88
2017-03-18T13:31:17.522Z,18.07
2017-03-18T13:32:27.855Z,18.16
2017-03-18T13:33:38.158Z,17.97
2017-03-18T13:34:48.476Z,17.78
2017-03-18T13:35:58.783Z,17.69
2017-03-18T13:37:09.098Z,17.97
2017-03-18T13:38:19.405Z,17.69
2017-03-18T13:39:29.657Z,17.97
2017-03-18T13:40:39.650Z,17.78
2017-03-18T13:41:49.957Z,17.97
2017-03-18T13:43:00.281Z,17.69
2017-03-18T13:44:09.660Z,17.97
2017-03-18T13:45:20.246Z,17.69
2017-03-18T13:46:30.566Z,17.49
2017-03-18T13:47:40.880Z,17.59
2017-03-18T13:48:51.217Z,17.49
2017-03-18T13:50:01.538Z,17.49
2017-03-18T13:51:12.108Z,17.4
2017-03-18T13:52:22.118Z,17.41
2017-03-18T13:53:32.438Z,17.4
2017-03-18T13:54:42.754Z,17.21
2017-03-18T13:55:53.072Z,17.49
2017-03-18T13:57:03.672Z,17.59
2017-03-18T13:58:13.991Z,17.59
2017-03-18T13:59:24.362Z,17.6
2017-03-18T14:00:34.705Z,17.49
2017-03-18T14:01:45.001Z,17.3
2017-03-18T14:02:55.581Z,17.3
2017-03-18T14:04:05.919Z,17.21
2017-03-18T14:05:16.248Z,17.5
2017-03-18T14:06:26.562Z,17.59
2017-03-18T14:07:36.861Z,17.69
2017-03-18T14:08:47.532Z,17.78
2017-03-18T14:09:57.857Z,17.69
2017-03-18T14:11:08.169Z,17.78
2017-03-18T14:12:18.484Z,18.16
2017-03-18T14:13:28.799Z,17.97
2017-03-18T14:14:39.452Z,17.97
2017-03-18T14:15:49.771Z,18.07
2017-03-18T14:17:00.079Z,18.07
2017-03-18T14:18:10.417Z,17.78
2017-03-18T14:19:20.748Z,18.16
2017-03-18T14:20:30.995Z,17.78
2017-03-18T14:21:41.307Z,17.97
2017-03-18T14:22:51.631Z,18.07
2017-03-18T14:24:01.667Z,18.07
2017-03-18T14:25:11.967Z,18.07
2017-03-18T14:26:22.591Z,18.07
2017-03-18T14:27:32.908Z,18.16
2017-03-18T14:28:43.223Z,17.69
2017-03-18T14:29:53.545Z,17.97
2017-03-18T14:31:03.850Z,17.59
2017-03-18T14:32:14.105Z,17.69
2017-03-18T14:33:24.412Z,17.88
2017-03-18T14:34:34.732Z,17.88
2017-03-18T14:35:45.031Z,17.69
2017-03-18T14:36:55.350Z,17.49
2017-03-18T14:38:05.907Z,17.78
2017-03-18T14:39:15.920Z,17.78
2017-03-18T14:40:26.254Z,17.59
2017-03-18T14:41:36.592Z,17.3
2017-03-18T14:42:46.591Z,17.49
2017-03-18T14:43:57.158Z,17.3
2017-03-18T14:45:07.459Z,17.01
2017-03-18T14:46:17.813Z,17.11
2017-03-18T14:47:28.118Z,16.92
2017-03-18T14:48:38.136Z,16.72
2017-03-18T14:49:48.741Z,16.82
2017-03-18T14:50:59.042Z,16.63
2017-03-18T14:52:09.509Z,16.82
2017-03-18T14:53:19.824Z,16.63
2017-03-18T14:54:30.144Z,16.63
2017-03-18T14:55:40.739Z,16.63
2017-03-18T14:56:51.046Z,16.72
2017-03-18T14:58:01.026Z,16.82
2017-03-18T14:59:11.028Z,16.72
2017-03-18T15:00:21.036Z,16.72
2017-03-18T15:01:31.279Z,16.63
2017-03-18T15:02:41.779Z,16.72
2017-03-18T15:03:52.114Z,16.72
2017-03-18T15:05:02.453Z,16.72
2017-03-18T15:06:12.776Z,16.82
2017-03-18T15:07:23.434Z,16.92
2017-03-18T15:08:33.772Z,16.82